DTR15Z ENBR-ENAL
Flight info
| Callsign | DTR15Z |
|---|---|
| Flight time | N/A |
| Altitude | 15000 |
| Route | OLDAS DCT TUMIM |
| Aircraft | AT76/M-SDFGIRY/S |
Departure
| Time | N/A |
|---|---|
| Airport | Bergen Airport, Flesland (ENBR) |
Arrival
| Time | 2026-05-05 20:24 |
|---|---|
| Airport | Ålesund Airport (ENAL) |
| Time | Latitude | Longitude | Altitude | Speed | Heading |
|---|---|---|---|---|---|
| 2026-05-05 19:46 | 60.69621 | 5.15842 | 13097 ft | 185 kts | 355° |
| 2026-05-05 19:46 | 60.70913 | 5.15888 | 13405 ft | 186 kts | 355° |
| 2026-05-05 19:46 | 60.72208 | 5.15936 | 13723 ft | 186 kts | 355° |
| 2026-05-05 19:47 | 60.73507 | 5.15983 | 13999 ft | 187 kts | 354° |
| 2026-05-05 19:47 | 60.74804 | 5.16031 | 14259 ft | 188 kts | 354° |
| 2026-05-05 19:47 | 60.75892 | 5.16069 | 14474 ft | 189 kts | 355° |
| 2026-05-05 19:48 | 60.75904 | 5.16069 | 14477 ft | 189 kts | 355° |
| 2026-05-05 19:48 | 60.77222 | 5.16115 | 14739 ft | 190 kts | 354° |
| 2026-05-05 19:49 | 60.78550 | 5.16159 | 14885 ft | 197 kts | 354° |
| 2026-05-05 19:49 | 60.79492 | 5.16193 | 14931 ft | 204 kts | 355° |
| 2026-05-05 19:49 | 60.81439 | 5.16261 | 14975 ft | 217 kts | 355° |
| 2026-05-05 19:49 | 60.82987 | 5.16315 | 14989 ft | 226 kts | 355° |
| 2026-05-05 19:50 | 60.84576 | 5.16373 | 14997 ft | 234 kts | 355° |
| 2026-05-05 19:50 | 60.86229 | 5.16430 | 15000 ft | 241 kts | 355° |
| 2026-05-05 19:50 | 60.87935 | 5.16491 | 14986 ft | 247 kts | 356° |
| 2026-05-05 19:50 | 60.89666 | 5.16553 | 14978 ft | 250 kts | 356° |
| 2026-05-05 19:51 | 60.91419 | 5.16615 | 14993 ft | 253 kts | 355° |
| 2026-05-05 19:51 | 60.93186 | 5.16674 | 14997 ft | 255 kts | 356° |
| 2026-05-05 19:51 | 60.94970 | 5.16745 | 15002 ft | 257 kts | 356° |
| 2026-05-05 19:51 | 60.96743 | 5.16803 | 14999 ft | 259 kts | 356° |
| 2026-05-05 19:52 | 60.98555 | 5.16870 | 14995 ft | 260 kts | 356° |
| 2026-05-05 19:52 | 61.00378 | 5.16938 | 14987 ft | 260 kts | 356° |
| 2026-05-05 19:52 | 61.02187 | 5.17007 | 14985 ft | 260 kts | 356° |
| 2026-05-05 19:52 | 61.03990 | 5.17070 | 14974 ft | 259 kts | 356° |
| 2026-05-05 19:53 | 61.05181 | 5.17117 | 15007 ft | 258 kts | 356° |
| 2026-05-05 19:53 | 61.07555 | 5.17518 | 15008 ft | 263 kts | 13° |
| 2026-05-05 19:53 | 61.09236 | 5.19175 | 15000 ft | 270 kts | 24° |
| 2026-05-05 19:53 | 61.10860 | 5.21166 | 14998 ft | 273 kts | 26° |
| 2026-05-05 19:54 | 61.11961 | 5.22537 | 14999 ft | 273 kts | 26° |
| 2026-05-05 19:54 | 61.13588 | 5.24524 | 14991 ft | 274 kts | 25° |
| 2026-05-05 19:54 | 61.15256 | 5.26449 | 14997 ft | 274 kts | 23° |
| 2026-05-05 19:54 | 61.16934 | 5.28332 | 14988 ft | 275 kts | 23° |
| 2026-05-05 19:55 | 61.18613 | 5.30233 | 14978 ft | 275 kts | 24° |
| 2026-05-05 19:55 | 61.20297 | 5.32141 | 14973 ft | 275 kts | 23° |
| 2026-05-05 19:55 | 61.21960 | 5.34031 | 14967 ft | 275 kts | 24° |
| 2026-05-05 19:55 | 61.23642 | 5.35947 | 14966 ft | 274 kts | 23° |
| 2026-05-05 19:56 | 61.25321 | 5.37851 | 14961 ft | 275 kts | 24° |
| 2026-05-05 19:56 | 61.26977 | 5.39744 | 14972 ft | 275 kts | 24° |
| 2026-05-05 19:56 | 61.28657 | 5.41657 | 14958 ft | 276 kts | 24° |
| 2026-05-05 19:56 | 61.30338 | 5.43581 | 14954 ft | 276 kts | 24° |
| 2026-05-05 19:57 | 61.32029 | 5.45514 | 14948 ft | 275 kts | 24° |
| 2026-05-05 19:57 | 61.33706 | 5.47436 | 14947 ft | 275 kts | 24° |
| 2026-05-05 19:57 | 61.35382 | 5.49358 | 14943 ft | 274 kts | 24° |
| 2026-05-05 19:57 | 61.37050 | 5.51274 | 14955 ft | 275 kts | 24° |
| 2026-05-05 19:58 | 61.38706 | 5.53180 | 14945 ft | 275 kts | 24° |
| 2026-05-05 19:58 | 61.40382 | 5.55108 | 14947 ft | 275 kts | 24° |
| 2026-05-05 19:58 | 61.42063 | 5.57043 | 14944 ft | 276 kts | 24° |
| 2026-05-05 19:58 | 61.43744 | 5.58986 | 14943 ft | 276 kts | 24° |
| 2026-05-05 19:59 | 61.45431 | 5.60933 | 14947 ft | 276 kts | 24° |
| 2026-05-05 19:59 | 61.47117 | 5.62887 | 14936 ft | 276 kts | 24° |
| 2026-05-05 19:59 | 61.48798 | 5.64833 | 14936 ft | 276 kts | 24° |
| 2026-05-05 19:59 | 61.50481 | 5.66781 | 14967 ft | 275 kts | 24° |
| 2026-05-05 20:00 | 61.52157 | 5.68731 | 14966 ft | 275 kts | 24° |
| 2026-05-05 20:00 | 61.53830 | 5.70678 | 14972 ft | 275 kts | 24° |
| 2026-05-05 20:00 | 61.55485 | 5.72602 | 14968 ft | 275 kts | 24° |
| 2026-05-05 20:00 | 61.57161 | 5.74555 | 14975 ft | 275 kts | 24° |
| 2026-05-05 20:01 | 61.58831 | 5.76505 | 14974 ft | 275 kts | 24° |
| 2026-05-05 20:01 | 61.60501 | 5.78453 | 14983 ft | 274 kts | 24° |
| 2026-05-05 20:01 | 61.62167 | 5.80400 | 14982 ft | 274 kts | 24° |
| 2026-05-05 20:01 | 61.63839 | 5.82359 | 14992 ft | 275 kts | 24° |
| 2026-05-05 20:02 | 61.65512 | 5.84326 | 14982 ft | 276 kts | 24° |
| 2026-05-05 20:02 | 61.67189 | 5.86291 | 14969 ft | 276 kts | 24° |
| 2026-05-05 20:02 | 61.68845 | 5.88241 | 14976 ft | 276 kts | 24° |
| 2026-05-05 20:02 | 61.70527 | 5.90223 | 14977 ft | 277 kts | 24° |
| 2026-05-05 20:03 | 61.72210 | 5.92178 | 14921 ft | 274 kts | 23° |
| 2026-05-05 20:03 | 61.73911 | 5.93961 | 14962 ft | 273 kts | 20° |
| 2026-05-05 20:03 | 61.75648 | 5.95609 | 14960 ft | 273 kts | 19° |
| 2026-05-05 20:03 | 61.77394 | 5.97232 | 14961 ft | 274 kts | 19° |
| 2026-05-05 20:04 | 61.79121 | 5.98838 | 14977 ft | 274 kts | 19° |
| 2026-05-05 20:04 | 61.80882 | 6.00477 | 14976 ft | 276 kts | 19° |
| 2026-05-05 20:04 | 61.82641 | 6.02154 | 14947 ft | 277 kts | 19° |
| 2026-05-05 20:04 | 61.84372 | 6.03820 | 14954 ft | 276 kts | 20° |
| 2026-05-05 20:05 | 61.86121 | 6.05502 | 14960 ft | 276 kts | 20° |
| 2026-05-05 20:05 | 61.87864 | 6.07184 | 14964 ft | 275 kts | 20° |
| 2026-05-05 20:05 | 61.89604 | 6.08867 | 14970 ft | 274 kts | 20° |
| 2026-05-05 20:05 | 61.91342 | 6.10546 | 14973 ft | 275 kts | 20° |
| 2026-05-05 20:06 | 61.93087 | 6.12236 | 14974 ft | 275 kts | 20° |
| 2026-05-05 20:06 | 61.94830 | 6.13922 | 14962 ft | 275 kts | 20° |
| 2026-05-05 20:06 | 61.96574 | 6.15615 | 14966 ft | 275 kts | 20° |
| 2026-05-05 20:06 | 61.98317 | 6.17306 | 14962 ft | 274 kts | 20° |
| 2026-05-05 20:07 | 62.00056 | 6.19004 | 14978 ft | 274 kts | 20° |
| 2026-05-05 20:07 | 62.01777 | 6.20673 | 14967 ft | 275 kts | 20° |
| 2026-05-05 20:07 | 62.03522 | 6.22351 | 14973 ft | 275 kts | 20° |
| 2026-05-05 20:07 | 62.05263 | 6.24062 | 14985 ft | 276 kts | 21° |
| 2026-05-05 20:08 | 62.07003 | 6.25808 | 14965 ft | 277 kts | 20° |
| 2026-05-05 20:08 | 62.08754 | 6.27534 | 14962 ft | 277 kts | 20° |
| 2026-05-05 20:08 | 62.10503 | 6.29241 | 14959 ft | 276 kts | 20° |
| 2026-05-05 20:08 | 62.12252 | 6.30958 | 14975 ft | 276 kts | 20° |
| 2026-05-05 20:09 | 62.13976 | 6.32656 | 14976 ft | 277 kts | 20° |
| 2026-05-05 20:09 | 62.15733 | 6.34383 | 14973 ft | 278 kts | 20° |
| 2026-05-05 20:09 | 62.17489 | 6.36113 | 14962 ft | 277 kts | 20° |
| 2026-05-05 20:09 | 62.19242 | 6.37844 | 14946 ft | 276 kts | 20° |
| 2026-05-05 20:10 | 62.20982 | 6.39570 | 14942 ft | 275 kts | 20° |
| 2026-05-05 20:10 | 62.22717 | 6.41286 | 14940 ft | 274 kts | 20° |
| 2026-05-05 20:10 | 62.24492 | 6.43045 | 14598 ft | 284 kts | 21° |
| 2026-05-05 20:10 | 62.26263 | 6.44819 | 14198 ft | 285 kts | 21° |
| 2026-05-05 20:11 | 62.28061 | 6.46609 | 13809 ft | 284 kts | 21° |
| 2026-05-05 20:11 | 62.29864 | 6.48387 | 13413 ft | 284 kts | 21° |
| 2026-05-05 20:11 | 62.31658 | 6.50166 | 12956 ft | 283 kts | 21° |
| 2026-05-05 20:11 | 62.33448 | 6.51953 | 12536 ft | 282 kts | 21° |
| 2026-05-05 20:12 | 62.35205 | 6.53694 | 12120 ft | 281 kts | 21° |
| 2026-05-05 20:12 | 62.36973 | 6.55444 | 11718 ft | 279 kts | 21° |
| 2026-05-05 20:12 | 62.38746 | 6.57164 | 11328 ft | 278 kts | 21° |
| 2026-05-05 20:12 | 62.40514 | 6.58846 | 10955 ft | 277 kts | 20° |
| 2026-05-05 20:13 | 62.42284 | 6.60521 | 10580 ft | 277 kts | 21° |
| 2026-05-05 20:13 | 62.44048 | 6.62196 | 10207 ft | 276 kts | 21° |
| 2026-05-05 20:13 | 62.45805 | 6.63900 | 9837 ft | 276 kts | 22° |
| 2026-05-05 20:13 | 62.47519 | 6.65678 | 9437 ft | 270 kts | 24° |
| 2026-05-05 20:14 | 62.49187 | 6.67495 | 9057 ft | 265 kts | 24° |
| 2026-05-05 20:14 | 62.50802 | 6.69254 | 8692 ft | 261 kts | 24° |
| 2026-05-05 20:14 | 62.52412 | 6.71003 | 8328 ft | 257 kts | 24° |
| 2026-05-05 20:14 | 62.54000 | 6.72736 | 8001 ft | 253 kts | 24° |
| 2026-05-05 20:15 | 62.55568 | 6.74441 | 7669 ft | 251 kts | 24° |
| 2026-05-05 20:15 | 62.57155 | 6.75812 | 7342 ft | 240 kts | 5° |
| 2026-05-05 20:15 | 62.58776 | 6.75543 | 7040 ft | 231 kts | 345° |
| 2026-05-05 20:15 | 62.60297 | 6.74577 | 6717 ft | 226 kts | 336° |
| 2026-05-05 20:16 | 62.61711 | 6.73239 | 6440 ft | 222 kts | 331° |
| 2026-05-05 20:16 | 62.63089 | 6.71774 | 6163 ft | 220 kts | 330° |
| 2026-05-05 20:16 | 62.64458 | 6.70290 | 5887 ft | 219 kts | 330° |
| 2026-05-05 20:16 | 62.65819 | 6.68795 | 5551 ft | 219 kts | 328° |
| 2026-05-05 20:17 | 62.67110 | 6.67054 | 5231 ft | 215 kts | 320° |
| 2026-05-05 20:17 | 62.67904 | 6.64442 | 4949 ft | 208 kts | 281° |
| 2026-05-05 20:17 | 62.67699 | 6.61416 | 4683 ft | 205 kts | 242° |
| 2026-05-05 20:17 | 62.66905 | 6.58921 | 4452 ft | 202 kts | 236° |
| 2026-05-05 20:18 | 62.66095 | 6.56429 | 4187 ft | 201 kts | 237° |
| 2026-05-05 20:18 | 62.65326 | 6.53894 | 3938 ft | 200 kts | 239° |
| 2026-05-05 20:18 | 62.64628 | 6.51295 | 3696 ft | 198 kts | 242° |
| 2026-05-05 20:18 | 62.63995 | 6.48662 | 3465 ft | 194 kts | 244° |
| 2026-05-05 20:19 | 62.63449 | 6.46015 | 3238 ft | 190 kts | 249° |
| 2026-05-05 20:19 | 62.63014 | 6.43452 | 3097 ft | 170 kts | 251° |
| 2026-05-05 20:19 | 62.62647 | 6.41221 | 3038 ft | 149 kts | 250° |
| 2026-05-05 20:19 | 62.62230 | 6.39180 | 2844 ft | 147 kts | 244° |
| 2026-05-05 20:20 | 62.61770 | 6.37258 | 2636 ft | 138 kts | 243° |
| 2026-05-05 20:20 | 62.61357 | 6.35467 | 2457 ft | 125 kts | 245° |
| 2026-05-05 20:20 | 62.61010 | 6.33849 | 2283 ft | 112 kts | 246° |
| 2026-05-05 20:20 | 62.60687 | 6.32334 | 2134 ft | 113 kts | 246° |
| 2026-05-05 20:21 | 62.60350 | 6.30776 | 1967 ft | 113 kts | 245° |
| 2026-05-05 20:21 | 62.60014 | 6.29226 | 1805 ft | 112 kts | 245° |
| 2026-05-05 20:21 | 62.59685 | 6.27721 | 1655 ft | 112 kts | 245° |
| 2026-05-05 20:21 | 62.59351 | 6.26193 | 1492 ft | 111 kts | 245° |
| 2026-05-05 20:22 | 62.59017 | 6.24676 | 1334 ft | 112 kts | 245° |
| 2026-05-05 20:22 | 62.58688 | 6.23153 | 1147 ft | 110 kts | 244° |
| 2026-05-05 20:22 | 62.58362 | 6.21654 | 1002 ft | 110 kts | 244° |
| 2026-05-05 20:22 | 62.58035 | 6.20143 | 828 ft | 110 kts | 243° |
| 2026-05-05 20:23 | 62.57710 | 6.18653 | 677 ft | 110 kts | 243° |
| 2026-05-05 20:23 | 62.57380 | 6.17159 | 537 ft | 110 kts | 243° |
| 2026-05-05 20:23 | 62.57051 | 6.15665 | 391 ft | 108 kts | 242° |
| 2026-05-05 20:23 | 62.56722 | 6.14180 | 242 ft | 110 kts | 243° |
| 2026-05-05 20:24 | 62.56409 | 6.12697 | 103 ft | 108 kts | 242° |
| 2026-05-05 20:24 | 62.56105 | 6.11326 | 74 ft | 89 kts | 245° |
| 2026-05-05 20:24 | 62.55932 | 6.10511 | 64 ft | 17 kts | 245° |
| 2026-05-05 20:24 | 62.55900 | 6.10290 | 59 ft | 14 kts | 249° |
| 2026-05-05 20:25 | 62.55867 | 6.10274 | 58 ft | 3 kts | 107° |
| 2026-05-05 20:25 | 62.55887 | 6.10362 | 59 ft | 12 kts | 56° |
| 2026-05-05 20:25 | 62.55933 | 6.10526 | 65 ft | 14 kts | 63° |
| 2026-05-05 20:25 | 62.55942 | 6.10738 | 66 ft | 13 kts | 104° |
| 2026-05-05 20:26 | 62.55921 | 6.10909 | 73 ft | 12 kts | 105° |
| 2026-05-05 20:26 | 62.55900 | 6.11078 | 73 ft | 8 kts | 102° |
| 2026-05-05 20:26 | 62.55903 | 6.11141 | 71 ft | 7 kts | 74° |
| 2026-05-05 20:26 | 62.55924 | 6.11250 | 70 ft | 10 kts | 64° |
| 2026-05-05 20:27 | 62.55942 | 6.11331 | 73 ft | 2 kts | 62° |
| 2026-05-05 20:27 | 62.55963 | 6.11422 | 72 ft | 11 kts | 66° |
| 2026-05-05 20:27 | 62.55974 | 6.11499 | 68 ft | 0 kts | 104° |
| 2026-05-05 20:27 | 62.55974 | 6.11500 | 68 ft | 0 kts | 108° |
| 2026-05-05 20:28 | 62.55969 | 6.11509 | 72 ft | 1 kts | 138° |
| 2026-05-05 20:28 | 62.55954 | 6.11531 | 75 ft | 0 kts | 123° |
| 2026-05-05 20:28 | 62.55965 | 6.11557 | 70 ft | 11 kts | 25° |
| 2026-05-05 20:28 | 62.55978 | 6.11487 | 73 ft | 10 kts | 160° |
| 2026-05-05 20:29 | 62.55942 | 6.11549 | 70 ft | 3 kts | 147° |
| 2026-05-05 20:29 | 62.55930 | 6.11561 | 74 ft | 3 kts | 156° |
| 2026-05-05 20:29 | 62.55927 | 6.11564 | 71 ft | 0 kts | 155° |